sensor_id;sensor_type;location;lat;lon;timestamp;P1;P2;P0
35654;PMS1003;21773;50.010;19.972;2022-11-20T00:01:34;71.75;57.25;51.00
35654;PMS1003;21773;50.010;19.972;2022-11-20T00:04:38;69.20;55.80;48.00
35654;PMS1003;21773;50.010;19.972;2022-11-20T00:07:41;69.50;57.75;49.00
35654;PMS1003;21773;50.010;19.972;2022-11-20T00:10:46;76.40;64.60;56.40
35654;PMS1003;21773;50.010;19.972;2022-11-20T00:13:50;72.20;60.20;51.00
35654;PMS1003;21773;50.010;19.972;2022-11-20T00:16:54;73.00;59.25;49.25
35654;PMS1003;21773;50.010;19.972;2022-11-20T00:19:57;74.20;64.00;55.20
35654;PMS1003;21773;50.010;19.972;2022-11-20T00:23:01;73.00;61.00;53.00
35654;PMS1003;21773;50.010;19.972;2022-11-20T00:26:07;75.00;63.00;55.00
35654;PMS1003;21773;50.010;19.972;2022-11-20T00:29:11;70.00;57.80;51.00
35654;PMS1003;21773;50.010;19.972;2022-11-20T00:32:14;72.80;60.00;51.40
35654;PMS1003;21773;50.010;19.972;2022-11-20T00:35:18;73.20;60.20;52.20
35654;PMS1003;21773;50.010;19.972;2022-11-20T00:38:22;69.67;58.00;49.00
35654;PMS1003;21773;50.010;19.972;2022-11-20T00:41:27;72.40;59.60;52.00
35654;PMS1003;21773;50.010;19.972;2022-11-20T00:44:31;71.00;56.50;50.50
35654;PMS1003;21773;50.010;19.972;2022-11-20T00:47:34;73.60;62.80;54.80
35654;PMS1003;21773;50.010;19.972;2022-11-20T00:50:37;74.80;63.80;56.60
35654;PMS1003;21773;50.010;19.972;2022-11-20T00:53:42;71.80;59.00;52.40
35654;PMS1003;21773;50.010;19.972;2022-11-20T00:56:47;74.50;60.75;54.00
35654;PMS1003;21773;50.010;19.972;2022-11-20T00:59:50;73.20;59.80;51.80
35654;PMS1003;21773;50.010;19.972;2022-11-20T01:02:55;72.00;60.00;52.20
35654;PMS1003;21773;50.010;19.972;2022-11-20T01:06:01;74.25;63.00;54.75
35654;PMS1003;21773;50.010;19.972;2022-11-20T01:09:06;76.60;65.40;58.40
35654;PMS1003;21773;50.010;19.972;2022-11-20T01:12:12;75.00;65.00;55.00
35654;PMS1003;21773;50.010;19.972;2022-11-20T01:15:15;72.00;61.00;53.00
35654;PMS1003;21773;50.010;19.972;2022-11-20T01:18:19;74.00;63.75;55.25
35654;PMS1003;21773;50.010;19.972;2022-11-20T01:21:23;72.80;61.20;53.80
35654;PMS1003;21773;50.010;19.972;2022-11-20T01:24:27;76.00;65.40;57.60
35654;PMS1003;21773;50.010;19.972;2022-11-20T01:27:32;71.40;56.80;49.40
35654;PMS1003;21773;50.010;19.972;2022-11-20T01:30:35;75.40;64.00;55.40
35654;PMS1003;21773;50.010;19.972;2022-11-20T01:33:38;72.60;60.60;52.60
35654;PMS1003;21773;50.010;19.972;2022-11-20T01:36:42;72.20;59.00;50.40
35654;PMS1003;21773;50.010;19.972;2022-11-20T01:39:46;71.50;59.25;52.50
35654;PMS1003;21773;50.010;19.972;2022-11-20T01:42:53;72.33;60.33;53.67
35654;PMS1003;21773;50.010;19.972;2022-11-20T01:46:23;68.75;56.00;49.50
35654;PMS1003;21773;50.010;19.972;2022-11-20T01:49:28;70.80;59.00;50.80
35654;PMS1003;21773;50.010;19.972;2022-11-20T01:52:38;68.00;55.00;47.40
35654;PMS1003;21773;50.010;19.972;2022-11-20T01:55:47;73.00;63.75;55.50
35654;PMS1003;21773;50.010;19.972;2022-11-20T01:58:55;74.40;65.40;57.80
35654;PMS1003;21773;50.010;19.972;2022-11-20T02:02:02;70.80;57.00;49.80
35654;PMS1003;21773;50.010;19.972;2022-11-20T02:05:10;75.00;61.00;54.00
35654;PMS1003;21773;50.010;19.972;2022-11-20T02:08:20;71.25;57.25;50.50
35654;PMS1003;21773;50.010;19.972;2022-11-20T02:11:26;72.00;61.00;53.00
35654;PMS1003;21773;50.010;19.972;2022-11-20T02:14:31;75.40;67.00;57.00
35654;PMS1003;21773;50.010;19.972;2022-11-20T02:17:33;72.60;59.20;52.00
35654;PMS1003;21773;50.010;19.972;2022-11-20T02:20:36;75.00;64.00;55.40
35654;PMS1003;21773;50.010;19.972;2022-11-20T02:23:51;71.60;58.40;51.60
35654;PMS1003;21773;50.010;19.972;2022-11-20T02:27:06;70.00;57.75;51.00
35654;PMS1003;21773;50.010;19.972;2022-11-20T02:30:11;70.40;58.40;50.60
35654;PMS1003;21773;50.010;19.972;2022-11-20T02:33:15;70.50;58.00;51.50
35654;PMS1003;21773;50.010;19.972;2022-11-20T02:36:18;73.80;61.00;53.20
35654;PMS1003;21773;50.010;19.972;2022-11-20T02:39:23;69.00;55.50;48.50
35654;PMS1003;21773;50.010;19.972;2022-11-20T02:42:30;73.00;61.00;53.00
35654;PMS1003;21773;50.010;19.972;2022-11-20T02:45:33;72.60;61.60;55.00
35654;PMS1003;21773;50.010;19.972;2022-11-20T02:48:36;69.40;56.20;48.00
35654;PMS1003;21773;50.010;19.972;2022-11-20T02:51:39;72.80;58.60;52.40
35654;PMS1003;21773;50.010;19.972;2022-11-20T02:54:44;69.60;56.80;50.00
35654;PMS1003;21773;50.010;19.972;2022-11-20T02:57:47;71.40;56.40;49.00
35654;PMS1003;21773;50.010;19.972;2022-11-20T03:00:51;69.67;55.33;49.33
35654;PMS1003;21773;50.010;19.972;2022-11-20T03:03:55;71.20;56.60;49.40
35654;PMS1003;21773;50.010;19.972;2022-11-20T03:06:58;72.80;61.20;53.00
35654;PMS1003;21773;50.010;19.972;2022-11-20T03:10:04;71.00;57.20;49.00
35654;PMS1003;21773;50.010;19.972;2022-11-20T03:13:09;73.00;59.00;51.80
35654;PMS1003;21773;50.010;19.972;2022-11-20T03:16:13;70.00;56.80;49.00
35654;PMS1003;21773;50.010;19.972;2022-11-20T03:19:18;70.00;56.00;47.20
35654;PMS1003;21773;50.010;19.972;2022-11-20T03:22:22;70.25;57.25;49.50
35654;PMS1003;21773;50.010;19.972;2022-11-20T03:25:27;72.60;61.40;52.20
35654;PMS1003;21773;50.010;19.972;2022-11-20T03:28:30;72.00;61.20;54.20
35654;PMS1003;21773;50.010;19.972;2022-11-20T03:31:35;72.00;58.00;51.00
35654;PMS1003;21773;50.010;19.972;2022-11-20T03:34:42;72.80;60.40;52.00
35654;PMS1003;21773;50.010;19.972;2022-11-20T03:37:45;70.60;56.80;49.60
35654;PMS1003;21773;50.010;19.972;2022-11-20T03:40:51;71.75;59.00;51.25
35654;PMS1003;21773;50.010;19.972;2022-11-20T03:44:01;75.40;65.00;59.00
35654;PMS1003;21773;50.010;19.972;2022-11-20T03:47:06;70.50;55.25;47.50
35654;PMS1003;21773;50.010;19.972;2022-11-20T03:50:10;73.00;59.00;51.00
35654;PMS1003;21773;50.010;19.972;2022-11-20T03:53:15;71.40;58.00;49.20
35654;PMS1003;21773;50.010;19.972;2022-11-20T03:56:21;71.50;59.00;52.50
35654;PMS1003;21773;50.010;19.972;2022-11-20T03:59:26;70.60;58.20;51.00
35654;PMS1003;21773;50.010;19.972;2022-11-20T04:02:30;72.60;60.20;51.60
35654;PMS1003;21773;50.010;19.972;2022-11-20T04:05:33;69.75;55.75;49.00
35654;PMS1003;21773;50.010;19.972;2022-11-20T04:08:36;72.00;58.60;50.60
35654;PMS1003;21773;50.010;19.972;2022-11-20T04:11:42;75.00;64.20;56.20
35654;PMS1003;21773;50.010;19.972;2022-11-20T04:14:45;72.50;62.75;52.75
35654;PMS1003;21773;50.010;19.972;2022-11-20T04:17:49;73.00;61.00;51.25
35654;PMS1003;21773;50.010;19.972;2022-11-20T04:20:52;72.20;59.40;51.80
35654;PMS1003;21773;50.010;19.972;2022-11-20T04:23:56;72.60;59.60;52.20
35654;PMS1003;21773;50.010;19.972;2022-11-20T04:27:01;74.00;64.00;56.00
35654;PMS1003;21773;50.010;19.972;2022-11-20T04:30:05;69.25;54.25;46.50
35654;PMS1003;21773;50.010;19.972;2022-11-20T04:33:09;70.20;57.20;49.80
35654;PMS1003;21773;50.010;19.972;2022-11-20T04:36:13;69.25;56.00;48.25
35654;PMS1003;21773;50.010;19.972;2022-11-20T04:39:18;70.20;54.40;47.80
35654;PMS1003;21773;50.010;19.972;2022-11-20T04:42:23;72.40;61.60;54.00
35654;PMS1003;21773;50.010;19.972;2022-11-20T04:45:32;71.60;58.00;50.80
35654;PMS1003;21773;50.010;19.972;2022-11-20T04:48:35;67.40;53.40;45.00
35654;PMS1003;21773;50.010;19.972;2022-11-20T04:51:39;72.20;59.40;52.00
35654;PMS1003;21773;50.010;19.972;2022-11-20T04:54:42;70.00;56.40;48.40
35654;PMS1003;21773;50.010;19.972;2022-11-20T04:57:47;72.40;59.00;53.00
35654;PMS1003;21773;50.010;19.972;2022-11-20T05:00:52;70.00;54.60;47.40
35654;PMS1003;21773;50.010;19.972;2022-11-20T05:03:56;70.00;57.00;49.00
35654;PMS1003;21773;50.010;19.972;2022-11-20T05:06:59;66.80;53.00;46.60
35654;PMS1003;21773;50.010;19.972;2022-11-20T05:10:03;71.50;59.50;53.00
35654;PMS1003;21773;50.010;19.972;2022-11-20T05:13:08;70.20;55.80;49.80
35654;PMS1003;21773;50.010;19.972;2022-11-20T05:16:12;72.00;57.00;51.00
35654;PMS1003;21773;50.010;19.972;2022-11-20T05:19:17;70.60;59.60;52.80
35654;PMS1003;21773;50.010;19.972;2022-11-20T05:22:21;69.20;56.20;49.40
35654;PMS1003;21773;50.010;19.972;2022-11-20T05:25:24;70.80;58.00;50.40
35654;PMS1003;21773;50.010;19.972;2022-11-20T05:28:29;69.00;57.00;49.60
35654;PMS1003;21773;50.010;19.972;2022-11-20T05:31:33;71.25;58.25;52.00
35654;PMS1003;21773;50.010;19.972;2022-11-20T05:34:37;70.00;57.00;49.00
35654;PMS1003;21773;50.010;19.972;2022-11-20T05:37:41;68.60;56.20;49.20
35654;PMS1003;21773;50.010;19.972;2022-11-20T05:40:44;67.50;52.50;44.50
35654;PMS1003;21773;50.010;19.972;2022-11-20T05:43:49;71.20;58.60;51.00
35654;PMS1003;21773;50.010;19.972;2022-11-20T05:46:53;71.80;58.00;50.80
35654;PMS1003;21773;50.010;19.972;2022-11-20T05:49:56;71.00;56.75;49.00
35654;PMS1003;21773;50.010;19.972;2022-11-20T05:53:00;72.75;59.00;52.25
35654;PMS1003;21773;50.010;19.972;2022-11-20T05:56:06;73.00;61.80;54.80
35654;PMS1003;21773;50.010;19.972;2022-11-20T05:59:13;68.00;56.00;49.00
35654;PMS1003;21773;50.010;19.972;2022-11-20T06:02:17;71.75;60.25;54.00
35654;PMS1003;21773;50.010;19.972;2022-11-20T06:05:21;71.20;57.40;49.40
35654;PMS1003;21773;50.010;19.972;2022-11-20T06:08:24;76.00;65.25;57.00
35654;PMS1003;21773;50.010;19.972;2022-11-20T06:11:27;75.00;59.00;51.00
35654;PMS1003;21773;50.010;19.972;2022-11-20T06:14:32;71.50;59.50;52.00
35654;PMS1003;21773;50.010;19.972;2022-11-20T06:17:35;70.00;57.00;49.00
35654;PMS1003;21773;50.010;19.972;2022-11-20T06:20:38;72.50;59.25;50.00
35654;PMS1003;21773;50.010;19.972;2022-11-20T06:23:43;72.80;61.20;53.20
35654;PMS1003;21773;50.010;19.972;2022-11-20T06:26:47;72.00;58.20;49.00
35654;PMS1003;21773;50.010;19.972;2022-11-20T06:29:51;73.00;62.50;53.00
35654;PMS1003;21773;50.010;19.972;2022-11-20T06:32:55;74.40;62.80;56.00
35654;PMS1003;21773;50.010;19.972;2022-11-20T06:35:58;72.75;60.50;52.50
35654;PMS1003;21773;50.010;19.972;2022-11-20T06:39:10;72.00;61.00;53.00
35654;PMS1003;21773;50.010;19.972;2022-11-20T06:42:14;73.25;61.25;53.50
35654;PMS1003;21773;50.010;19.972;2022-11-20T06:45:18;73.40;60.40;53.00
35654;PMS1003;21773;50.010;19.972;2022-11-20T06:48:22;71.75;60.50;52.50
35654;PMS1003;21773;50.010;19.972;2022-11-20T06:51:26;79.25;71.75;62.00
35654;PMS1003;21773;50.010;19.972;2022-11-20T06:54:29;80.60;72.80;60.80
35654;PMS1003;21773;50.010;19.972;2022-11-20T06:57:33;82.40;73.00;63.80
35654;PMS1003;21773;50.010;19.972;2022-11-20T07:00:38;87.40;78.20;65.60
35654;PMS1003;21773;50.010;19.972;2022-11-20T07:03:42;84.00;78.00;66.25
35654;PMS1003;21773;50.010;19.972;2022-11-20T07:06:53;86.75;79.00;67.25
35654;PMS1003;21773;50.010;19.972;2022-11-20T07:09:57;84.00;73.25;60.25
35654;PMS1003;21773;50.010;19.972;2022-11-20T07:13:00;87.20;78.00;66.20
35654;PMS1003;21773;50.010;19.972;2022-11-20T07:16:06;88.50;79.50;68.75
35654;PMS1003;21773;50.010;19.972;2022-11-20T07:19:10;87.00;76.80;64.20
35654;PMS1003;21773;50.010;19.972;2022-11-20T07:22:14;88.20;81.80;70.40
35654;PMS1003;21773;50.010;19.972;2022-11-20T07:25:17;88.75;78.50;67.75
35654;PMS1003;21773;50.010;19.972;2022-11-20T07:28:20;79.50;69.00;60.25
35654;PMS1003;21773;50.010;19.972;2022-11-20T07:31:25;81.00;70.00;59.00
35654;PMS1003;21773;50.010;19.972;2022-11-20T07:34:28;85.00;73.00;62.33
35654;PMS1003;21773;50.010;19.972;2022-11-20T07:37:33;89.00;79.75;67.75
35654;PMS1003;21773;50.010;19.972;2022-11-20T07:40:37;90.20;77.80;66.80
35654;PMS1003;21773;50.010;19.972;2022-11-20T07:43:40;89.40;79.80;69.60
35654;PMS1003;21773;50.010;19.972;2022-11-20T07:46:45;83.00;75.60;64.60
35654;PMS1003;21773;50.010;19.972;2022-11-20T07:49:48;83.75;75.00;64.75
35654;PMS1003;21773;50.010;19.972;2022-11-20T07:52:51;82.40;73.00;63.00
35654;PMS1003;21773;50.010;19.972;2022-11-20T07:55:58;79.00;68.00;58.00
35654;PMS1003;21773;50.010;19.972;2022-11-20T07:59:02;84.50;75.00;64.25
35654;PMS1003;21773;50.010;19.972;2022-11-20T08:02:10;83.20;75.00;64.40
35654;PMS1003;21773;50.010;19.972;2022-11-20T08:05:13;83.00;74.50;63.50
35654;PMS1003;21773;50.010;19.972;2022-11-20T08:08:17;83.75;74.75;63.75
35654;PMS1003;21773;50.010;19.972;2022-11-20T08:11:21;80.20;72.00;61.60
35654;PMS1003;21773;50.010;19.972;2022-11-20T08:14:42;82.60;76.20;64.00
35654;PMS1003;21773;50.010;19.972;2022-11-20T08:17:46;79.25;70.50;61.75
35654;PMS1003;21773;50.010;19.972;2022-11-20T08:21:10;79.40;73.20;61.80
35654;PMS1003;21773;50.010;19.972;2022-11-20T08:24:13;81.40;73.20;62.60
35654;PMS1003;21773;50.010;19.972;2022-11-20T08:27:16;83.00;69.80;57.80
35654;PMS1003;21773;50.010;19.972;2022-11-20T08:30:19;84.25;75.00;64.75
35654;PMS1003;21773;50.010;19.972;2022-11-20T08:33:24;78.40;69.00;59.80
35654;PMS1003;21773;50.010;19.972;2022-11-20T08:36:27;79.40;69.60;59.40
35654;PMS1003;21773;50.010;19.972;2022-11-20T08:39:31;76.40;66.60;55.20
35654;PMS1003;21773;50.010;19.972;2022-11-20T08:42:34;78.20;69.20;59.80
35654;PMS1003;21773;50.010;19.972;2022-11-20T08:45:38;77.00;69.00;59.80
35654;PMS1003;21773;50.010;19.972;2022-11-20T08:48:42;76.25;63.75;54.00
35654;PMS1003;21773;50.010;19.972;2022-11-20T08:51:46;76.40;64.60;53.20
35654;PMS1003;21773;50.010;19.972;2022-11-20T08:54:53;76.00;65.00;55.00
35654;PMS1003;21773;50.010;19.972;2022-11-20T08:57:56;77.40;65.20;54.20
35654;PMS1003;21773;50.010;19.972;2022-11-20T09:00:59;77.50;65.50;55.50
35654;PMS1003;21773;50.010;19.972;2022-11-20T09:04:04;78.20;70.40;60.40
35654;PMS1003;21773;50.010;19.972;2022-11-20T09:07:07;75.60;67.20;58.40
35654;PMS1003;21773;50.010;19.972;2022-11-20T09:10:11;76.60;64.60;55.60
35654;PMS1003;21773;50.010;19.972;2022-11-20T09:13:26;77.40;65.80;56.40
35654;PMS1003;21773;50.010;19.972;2022-11-20T09:16:30;76.75;68.75;58.75
35654;PMS1003;21773;50.010;19.972;2022-11-20T09:19:35;77.00;66.00;57.00
35654;PMS1003;21773;50.010;19.972;2022-11-20T09:22:39;77.40;68.00;59.00
35654;PMS1003;21773;50.010;19.972;2022-11-20T09:25:43;79.60;72.20;62.80
35654;PMS1003;21773;50.010;19.972;2022-11-20T09:28:46;80.40;72.40;63.00
35654;PMS1003;21773;50.010;19.972;2022-11-20T09:31:55;79.25;70.50;60.75
35654;PMS1003;21773;50.010;19.972;2022-11-20T09:35:00;79.40;69.00;59.40
35654;PMS1003;21773;50.010;19.972;2022-11-20T09:38:04;78.00;68.80;56.60
35654;PMS1003;21773;50.010;19.972;2022-11-20T09:41:10;77.60;66.00;58.00
35654;PMS1003;21773;50.010;19.972;2022-11-20T09:44:43;76.40;66.80;57.40
35654;PMS1003;21773;50.010;19.972;2022-11-20T09:47:59;78.25;68.50;59.25
35654;PMS1003;21773;50.010;19.972;2022-11-20T09:51:30;75.00;65.00;55.40
35654;PMS1003;21773;50.010;19.972;2022-11-20T09:54:43;77.67;66.67;57.00
35654;PMS1003;21773;50.010;19.972;2022-11-20T09:57:47;76.00;66.00;55.60
35654;PMS1003;21773;50.010;19.972;2022-11-20T10:00:53;75.20;63.00;53.00
35654;PMS1003;21773;50.010;19.972;2022-11-20T10:04:00;76.40;63.80;55.20
35654;PMS1003;21773;50.010;19.972;2022-11-20T10:07:10;79.80;68.40;59.40
35654;PMS1003;21773;50.010;19.972;2022-11-20T10:10:33;78.20;66.80;55.20
35654;PMS1003;21773;50.010;19.972;2022-11-20T10:13:46;77.25;68.50;57.75
35654;PMS1003;21773;50.010;19.972;2022-11-20T10:16:58;79.00;71.25;59.50
35654;PMS1003;21773;50.010;19.972;2022-11-20T10:20:14;78.40;71.40;59.80
35654;PMS1003;21773;50.010;19.972;2022-11-20T10:23:30;78.50;69.00;59.00
35654;PMS1003;21773;50.010;19.972;2022-11-20T10:26:49;78.40;70.00;59.00
35654;PMS1003;21773;50.010;19.972;2022-11-20T10:30:02;77.20;68.60;59.80
35654;PMS1003;21773;50.010;19.972;2022-11-20T10:33:13;78.20;69.00;58.60
35654;PMS1003;21773;50.010;19.972;2022-11-20T10:36:21;77.20;67.80;58.00
35654;PMS1003;21773;50.010;19.972;2022-11-20T10:39:32;78.80;71.40;61.20
35654;PMS1003;21773;50.010;19.972;2022-11-20T10:42:42;76.60;66.60;54.60
35654;PMS1003;21773;50.010;19.972;2022-11-20T10:45:49;76.00;65.00;55.00
35654;PMS1003;21773;50.010;19.972;2022-11-20T10:48:56;77.00;67.33;55.67
35654;PMS1003;21773;50.010;19.972;2022-11-20T10:52:02;77.40;70.20;60.40
35654;PMS1003;21773;50.010;19.972;2022-11-20T10:55:18;80.25;71.00;59.50
35654;PMS1003;21773;50.010;19.972;2022-11-20T10:58:32;75.00;61.80;52.60
35654;PMS1003;21773;50.010;19.972;2022-11-20T11:01:44;76.25;64.25;55.00
35654;PMS1003;21773;50.010;19.972;2022-11-20T11:04:48;77.00;65.80;57.00
35654;PMS1003;21773;50.010;19.972;2022-11-20T11:07:53;79.00;70.40;61.00
35654;PMS1003;21773;50.010;19.972;2022-11-20T11:11:01;77.60;67.40;57.60
35654;PMS1003;21773;50.010;19.972;2022-11-20T11:14:12;78.40;69.20;59.00
35654;PMS1003;21773;50.010;19.972;2022-11-20T11:17:20;78.00;69.80;59.80
35654;PMS1003;21773;50.010;19.972;2022-11-20T11:20:25;74.25;59.25;49.50
35654;PMS1003;21773;50.010;19.972;2022-11-20T11:23:31;81.00;73.00;63.00
35654;PMS1003;21773;50.010;19.972;2022-11-20T11:26:37;76.40;67.80;58.40
35654;PMS1003;21773;50.010;19.972;2022-11-20T11:29:41;77.00;68.20;59.00
35654;PMS1003;21773;50.010;19.972;2022-11-20T11:32:44;78.60;67.80;59.80
35654;PMS1003;21773;50.010;19.972;2022-11-20T11:35:49;77.60;67.00;55.80
35654;PMS1003;21773;50.010;19.972;2022-11-20T11:38:54;79.20;72.00;61.00
35654;PMS1003;21773;50.010;19.972;2022-11-20T11:41:59;78.80;70.20;60.40
35654;PMS1003;21773;50.010;19.972;2022-11-20T11:45:05;76.75;68.25;58.25
35654;PMS1003;21773;50.010;19.972;2022-11-20T11:48:09;79.00;71.60;60.00
35654;PMS1003;21773;50.010;19.972;2022-11-20T11:51:12;80.00;71.00;60.40
35654;PMS1003;21773;50.010;19.972;2022-11-20T11:54:23;79.25;71.00;59.50
35654;PMS1003;21773;50.010;19.972;2022-11-20T11:57:34;79.00;70.00;61.00
35654;PMS1003;21773;50.010;19.972;2022-11-20T12:00:47;72.25;60.25;49.75
35654;PMS1003;21773;50.010;19.972;2022-11-20T12:03:59;77.00;67.50;56.75
35654;PMS1003;21773;50.010;19.972;2022-11-20T12:07:08;75.40;65.60;56.60
35654;PMS1003;21773;50.010;19.972;2022-11-20T12:10:39;78.00;69.25;61.00
35654;PMS1003;21773;50.010;19.972;2022-11-20T12:13:50;79.25;69.75;59.25
35654;PMS1003;21773;50.010;19.972;2022-11-20T12:17:03;78.20;68.60;57.20
35654;PMS1003;21773;50.010;19.972;2022-11-20T12:20:11;79.20;69.20;59.00
35654;PMS1003;21773;50.010;19.972;2022-11-20T12:23:16;81.75;75.25;64.00
35654;PMS1003;21773;50.010;19.972;2022-11-20T12:26:38;76.00;63.75;54.00
35654;PMS1003;21773;50.010;19.972;2022-11-20T12:29:56;80.40;71.40;59.00
35654;PMS1003;21773;50.010;19.972;2022-11-20T12:33:08;75.80;68.60;58.00
35654;PMS1003;21773;50.010;19.972;2022-11-20T12:36:24;78.40;68.60;58.60
35654;PMS1003;21773;50.010;19.972;2022-11-20T12:39:34;79.60;71.20;60.20
35654;PMS1003;21773;50.010;19.972;2022-11-20T12:42:42;76.00;68.50;57.00
35654;PMS1003;21773;50.010;19.972;2022-11-20T12:46:18;80.00;69.50;56.75
35654;PMS1003;21773;50.010;19.972;2022-11-20T12:49:30;78.80;69.00;59.60
35654;PMS1003;21773;50.010;19.972;2022-11-20T12:52:42;75.75;65.00;55.00
35654;PMS1003;21773;50.010;19.972;2022-11-20T12:55:55;75.00;65.00;55.00
35654;PMS1003;21773;50.010;19.972;2022-11-20T12:59:12;81.20;71.80;63.20
35654;PMS1003;21773;50.010;19.972;2022-11-20T13:02:41;83.00;73.25;63.00
35654;PMS1003;21773;50.010;19.972;2022-11-20T13:06:02;78.00;68.60;58.60
35654;PMS1003;21773;50.010;19.972;2022-11-20T13:09:13;75.50;64.50;55.00
35654;PMS1003;21773;50.010;19.972;2022-11-20T13:12:22;78.40;71.00;61.40
35654;PMS1003;21773;50.010;19.972;2022-11-20T13:15:35;82.40;74.40;61.40
35654;PMS1003;21773;50.010;19.972;2022-11-20T13:18:49;79.40;73.00;64.40
35654;PMS1003;21773;50.010;19.972;2022-11-20T13:21:52;88.40;78.00;67.20
35654;PMS1003;21773;50.010;19.972;2022-11-20T13:24:55;79.80;71.40;60.80
35654;PMS1003;21773;50.010;19.972;2022-11-20T13:27:59;83.60;75.80;67.20
35654;PMS1003;21773;50.010;19.972;2022-11-20T13:31:09;80.80;71.40;62.40
35654;PMS1003;21773;50.010;19.972;2022-11-20T13:34:33;79.25;72.00;63.00
35654;PMS1003;21773;50.010;19.972;2022-11-20T13:37:37;77.00;66.00;57.00
35654;PMS1003;21773;50.010;19.972;2022-11-20T13:40:49;76.25;66.25;56.75
35654;PMS1003;21773;50.010;19.972;2022-11-20T13:43:54;77.00;69.00;58.25
35654;PMS1003;21773;50.010;19.972;2022-11-20T13:47:17;76.75;65.75;53.75
35654;PMS1003;21773;50.010;19.972;2022-11-20T13:50:29;79.40;70.60;59.20
35654;PMS1003;21773;50.010;19.972;2022-11-20T13:53:48;77.60;66.60;57.20
35654;PMS1003;21773;50.010;19.972;2022-11-20T13:57:06;81.60;73.00;61.60
35654;PMS1003;21773;50.010;19.972;2022-11-20T14:00:25;80.60;72.00;62.20
35654;PMS1003;21773;50.010;19.972;2022-11-20T14:03:28;80.25;71.75;60.50
35654;PMS1003;21773;50.010;19.972;2022-11-20T14:06:57;80.40;70.40;61.00
35654;PMS1003;21773;50.010;19.972;2022-11-20T14:10:01;78.20;67.20;55.40
35654;PMS1003;21773;50.010;19.972;2022-11-20T14:13:15;78.20;69.00;58.80
35654;PMS1003;21773;50.010;19.972;2022-11-20T14:16:20;83.20;73.80;63.20
35654;PMS1003;21773;50.010;19.972;2022-11-20T14:19:25;77.25;69.00;58.50
35654;PMS1003;21773;50.010;19.972;2022-11-20T14:22:33;78.40;67.00;57.00
35654;PMS1003;21773;50.010;19.972;2022-11-20T14:25:37;77.20;71.00;59.00
35654;PMS1003;21773;50.010;19.972;2022-11-20T14:28:47;78.00;71.00;62.00
35654;PMS1003;21773;50.010;19.972;2022-11-20T14:31:52;79.80;73.40;63.40
35654;PMS1003;21773;50.010;19.972;2022-11-20T14:34:58;80.60;73.20;63.20
35654;PMS1003;21773;50.010;19.972;2022-11-20T14:38:11;78.00;70.50;62.00
35654;PMS1003;21773;50.010;19.972;2022-11-20T14:41:17;77.80;71.00;59.20
35654;PMS1003;21773;50.010;19.972;2022-11-20T14:44:23;77.00;68.80;58.40
35654;PMS1003;21773;50.010;19.972;2022-11-20T14:47:30;84.80;75.00;63.00
35654;PMS1003;21773;50.010;19.972;2022-11-20T14:50:34;78.60;72.20;60.60
35654;PMS1003;21773;50.010;19.972;2022-11-20T14:53:40;87.00;74.00;63.00
35654;PMS1003;21773;50.010;19.972;2022-11-20T14:56:53;77.60;66.80;56.60
35654;PMS1003;21773;50.010;19.972;2022-11-20T15:00:03;84.75;73.75;63.50
35654;PMS1003;21773;50.010;19.972;2022-11-20T15:03:14;78.40;70.20;59.40
35654;PMS1003;21773;50.010;19.972;2022-11-20T15:06:25;85.00;77.60;66.60
35654;PMS1003;21773;50.010;19.972;2022-11-20T15:09:30;83.00;70.20;57.60
35654;PMS1003;21773;50.010;19.972;2022-11-20T15:12:34;89.80;81.40;71.20
35654;PMS1003;21773;50.010;19.972;2022-11-20T15:15:42;90.80;81.20;69.20
35654;PMS1003;21773;50.010;19.972;2022-11-20T15:18:49;95.00;84.40;72.00
35654;PMS1003;21773;50.010;19.972;2022-11-20T15:21:53;91.60;82.60;71.60
35654;PMS1003;21773;50.010;19.972;2022-11-20T15:24:59;98.20;87.20;74.60
35654;PMS1003;21773;50.010;19.972;2022-11-20T15:28:02;95.00;85.40;73.40
35654;PMS1003;21773;50.010;19.972;2022-11-20T15:31:11;101.40;88.20;76.20
35654;PMS1003;21773;50.010;19.972;2022-11-20T15:34:16;93.00;85.20;73.00
35654;PMS1003;21773;50.010;19.972;2022-11-20T15:37:19;100.40;90.80;78.40
35654;PMS1003;21773;50.010;19.972;2022-11-20T15:40:31;99.00;88.80;76.80
35654;PMS1003;21773;50.010;19.972;2022-11-20T15:43:35;97.25;89.00;73.75
35654;PMS1003;21773;50.010;19.972;2022-11-20T15:46:39;106.33;95.00;82.67
35654;PMS1003;21773;50.010;19.972;2022-11-20T15:49:46;100.00;89.00;76.50
35654;PMS1003;21773;50.010;19.972;2022-11-20T15:52:49;103.60;91.00;77.80
35654;PMS1003;21773;50.010;19.972;2022-11-20T15:55:54;101.00;91.80;75.80
35654;PMS1003;21773;50.010;19.972;2022-11-20T15:58:57;104.00;90.75;76.75
35654;PMS1003;21773;50.010;19.972;2022-11-20T16:02:01;102.20;95.20;81.80
35654;PMS1003;21773;50.010;19.972;2022-11-20T16:05:04;106.00;91.00;74.33
35654;PMS1003;21773;50.010;19.972;2022-11-20T16:08:13;102.25;89.50;75.50
35654;PMS1003;21773;50.010;19.972;2022-11-20T16:11:18;96.20;86.60;71.60
35654;PMS1003;21773;50.010;19.972;2022-11-20T16:14:22;98.00;87.00;75.00
35654;PMS1003;21773;50.010;19.972;2022-11-20T16:17:43;94.40;86.80;73.80
35654;PMS1003;21773;50.010;19.972;2022-11-20T16:20:46;93.20;85.20;72.40
35654;PMS1003;21773;50.010;19.972;2022-11-20T16:23:51;88.60;80.20;69.60
35654;PMS1003;21773;50.010;19.972;2022-11-20T16:26:56;87.60;79.40;68.00
35654;PMS1003;21773;50.010;19.972;2022-11-20T16:30:00;90.00;82.50;69.50
35654;PMS1003;21773;50.010;19.972;2022-11-20T16:33:03;93.60;83.60;70.80
35654;PMS1003;21773;50.010;19.972;2022-11-20T16:36:10;89.00;80.50;69.00
35654;PMS1003;21773;50.010;19.972;2022-11-20T16:39:14;95.60;83.00;71.20
35654;PMS1003;21773;50.010;19.972;2022-11-20T16:42:25;94.40;85.20;71.20
35654;PMS1003;21773;50.010;19.972;2022-11-20T16:45:28;89.60;80.60;67.40
35654;PMS1003;21773;50.010;19.972;2022-11-20T16:48:34;91.00;81.00;68.00
35654;PMS1003;21773;50.010;19.972;2022-11-20T16:51:38;90.80;81.40;69.40
35654;PMS1003;21773;50.010;19.972;2022-11-20T16:54:41;100.40;84.40;70.00
35654;PMS1003;21773;50.010;19.972;2022-11-20T16:57:46;93.80;82.60;69.00
35654;PMS1003;21773;50.010;19.972;2022-11-20T17:00:49;93.20;84.60;72.20
35654;PMS1003;21773;50.010;19.972;2022-11-20T17:03:53;93.20;82.20;70.40
35654;PMS1003;21773;50.010;19.972;2022-11-20T17:06:58;87.00;82.25;70.00
35654;PMS1003;21773;50.010;19.972;2022-11-20T17:10:08;94.20;85.00;72.80
35654;PMS1003;21773;50.010;19.972;2022-11-20T17:13:14;98.00;89.20;75.60